createdAt,value
2022-11-14T00:06:35.264Z,24.38
2022-11-14T00:11:45.539Z,20.63
2022-11-14T00:19:22.574Z,25.30
2022-11-14T00:26:58.522Z,25.20
2022-11-14T00:32:09.242Z,23.73
2022-11-14T00:39:45.376Z,25.10
2022-11-14T00:42:30.614Z,25.63
2022-11-14T00:45:15.554Z,25.75
2022-11-14T00:47:42.116Z,26.85
2022-11-14T00:50:27.089Z,22.52
2022-11-14T00:55:19.118Z,24.83
2022-11-14T00:58:04.669Z,25.63
2022-11-14T01:00:31.397Z,22.58
2022-11-14T01:03:16.404Z,24.65
2022-11-14T01:10:35.288Z,23.48
2022-11-14T01:15:47.193Z,23.50
2022-11-14T01:18:32.731Z,25.08
2022-11-14T01:21:18.193Z,23.83
2022-11-14T01:28:54.234Z,20.42
2022-11-14T01:31:39.446Z,22.15
2022-11-14T01:34:24.795Z,22.20
2022-11-14T01:39:16.863Z,24.73
2022-11-14T01:42:02.057Z,31.42
2022-11-14T01:44:52.511Z,19.38
2022-11-14T01:49:48.505Z,21.75
2022-11-14T01:55:00.012Z,25.33
2022-11-14T01:57:47.147Z,20.20
2022-11-14T02:00:14.257Z,21.15
2022-11-14T02:03:00.817Z,21.58
2022-11-14T02:08:31.707Z,18.95
2022-11-14T02:11:16.911Z,22.80
2022-11-14T02:14:02.534Z,19.98
2022-11-14T02:17:07.306Z,20.15
2022-11-14T02:20:06.745Z,23.40
2022-11-14T02:22:51.776Z,19.95
2022-11-14T02:35:19.097Z,28.25
2022-11-14T02:40:29.780Z,26.65
2022-11-14T02:43:15.262Z,30.52
2022-11-14T02:46:05.417Z,25.60
2022-11-14T02:48:32.747Z,24.10
2022-11-14T02:51:18.101Z,27.92
2022-11-14T02:58:54.185Z,22.25
2022-11-14T03:01:39.204Z,23.10
2022-11-14T03:04:24.610Z,21.40
2022-11-14T03:09:35.391Z,22.85
2022-11-14T03:12:20.618Z,23.10
2022-11-14T03:19:38.582Z,24.90
2022-11-14T03:24:49.363Z,25.38
2022-11-14T03:27:34.843Z,32.85
2022-11-14T03:32:26.902Z,25.52
2022-11-14T03:35:11.804Z,29.42
2022-11-14T03:40:22.642Z,30.42
2022-11-14T03:43:07.971Z,29.33
2022-11-14T03:45:53.229Z,29.98
2022-11-14T03:50:45.230Z,33.95
2022-11-14T03:53:30.312Z,35.13
2022-11-14T03:56:15.374Z,38.13
2022-11-14T04:01:07.588Z,31.55
2022-11-14T04:03:53.054Z,37.65
2022-11-14T04:06:19.656Z,26.98
2022-11-14T04:09:05.127Z,29.33
2022-11-14T04:11:31.747Z,33.85
2022-11-14T04:14:16.569Z,33.78
2022-11-14T04:21:34.116Z,27.10
2022-11-14T04:26:45.169Z,29.23
2022-11-14T04:31:55.820Z,30.88
2022-11-14T04:39:31.792Z,28.05
2022-11-14T04:47:08.083Z,26.60
2022-11-14T04:54:43.879Z,22.25
2022-11-14T04:57:29.220Z,23.30
2022-11-14T05:00:14.846Z,23.27
2022-11-14T05:03:00.308Z,24.08
2022-11-14T05:05:45.389Z,28.60
2022-11-14T05:08:12.038Z,25.17
2022-11-14T05:10:57.421Z,24.83
2022-11-14T05:13:24.054Z,30.10
2022-11-14T05:16:09.415Z,27.80
2022-11-14T05:18:36.238Z,23.80
2022-11-14T05:21:21.170Z,25.63
2022-11-14T05:24:06.562Z,25.50
2022-11-14T05:26:51.413Z,23.90
2022-11-14T05:29:18.099Z,23.17
2022-11-14T05:32:03.392Z,29.70
2022-11-14T05:34:49.027Z,28.52
2022-11-14T05:52:07.329Z,26.55
2022-11-14T05:54:53.613Z,25.33
2022-11-14T05:57:38.920Z,29.15
2022-11-14T06:00:06.074Z,23.75
2022-11-14T06:02:55.001Z,26.97
2022-11-14T06:05:22.655Z,29.75
2022-11-14T06:08:07.970Z,25.95
2022-11-14T06:13:00.757Z,29.15
2022-11-14T06:20:37.554Z,35.75
2022-11-14T06:23:04.207Z,34.13
2022-11-14T06:28:14.563Z,39.30
2022-11-14T06:47:59.755Z,31.13
2022-11-14T06:50:51.129Z,29.50
2022-11-14T06:55:43.361Z,27.92
2022-11-14T07:01:02.788Z,29.30
2022-11-14T07:06:16.246Z,29.42
2022-11-14T07:12:23.699Z,28.10
2022-11-14T07:15:09.030Z,28.05
2022-11-14T07:20:01.975Z,24.65
2022-11-14T07:30:04.407Z,33.17
2022-11-14T07:32:59.041Z,28.53
2022-11-14T07:38:09.651Z,28.00
2022-11-14T07:41:00.337Z,33.83
2022-11-14T07:43:46.139Z,28.00
2022-11-14T07:46:31.241Z,27.00
2022-11-14T07:54:07.392Z,30.55
2022-11-14T07:56:52.957Z,24.65
2022-11-14T07:59:38.146Z,25.60
2022-11-14T08:02:04.796Z,28.27
2022-11-14T08:04:49.706Z,28.90
2022-11-14T08:12:07.106Z,24.98
2022-11-14T08:14:52.362Z,24.83
2022-11-14T08:17:37.627Z,35.53
2022-11-14T08:20:22.837Z,22.42
2022-11-14T08:23:07.953Z,28.35
2022-11-14T08:27:59.955Z,36.30
2022-11-14T08:30:45.481Z,41.60
2022-11-14T08:42:58.843Z,23.55
2022-11-14T08:48:09.162Z,16.63
2022-11-14T08:50:54.295Z,16.50
2022-11-14T08:53:39.513Z,20.42
2022-11-14T08:56:06.242Z,16.02
2022-11-14T08:58:51.476Z,16.15
2022-11-14T09:01:36.616Z,17.20
2022-11-14T09:04:21.609Z,15.63
2022-11-14T09:06:48.338Z,15.35
2022-11-14T09:09:33.518Z,12.23
2022-11-14T09:12:00.115Z,14.45
2022-11-14T09:14:45.206Z,12.63
2022-11-14T09:17:11.843Z,13.02
2022-11-14T09:19:56.694Z,12.85
2022-11-14T09:29:40.530Z,15.82
2022-11-14T09:32:26.032Z,11.00
2022-11-14T09:35:12.894Z,14.43
2022-11-14T09:37:39.730Z,13.93
2022-11-14T09:40:24.975Z,12.23
2022-11-14T09:43:06.630Z,15.57
2022-11-14T09:45:52.138Z,20.77
2022-11-14T09:48:21.395Z,14.40
2022-11-14T09:51:08.039Z,20.02
2022-11-14T09:53:37.112Z,16.95
2022-11-14T09:56:26.286Z,17.83
2022-11-14T09:58:55.157Z,16.10
2022-11-14T10:01:48.159Z,15.25
2022-11-14T10:14:32.768Z,16.67
2022-11-14T10:20:02.087Z,18.25
2022-11-14T10:22:58.657Z,14.50
2022-11-14T10:31:05.410Z,17.30
2022-11-14T10:34:09.197Z,16.50
2022-11-14T10:36:57.548Z,16.08
2022-11-14T10:39:31.548Z,14.70
2022-11-14T10:42:25.135Z,17.83
2022-11-14T10:45:02.313Z,17.50
2022-11-14T10:47:51.549Z,15.35
2022-11-14T10:55:15.930Z,15.23
2022-11-14T10:58:01.124Z,18.27
2022-11-14T11:00:46.113Z,20.60
2022-11-14T11:03:12.823Z,18.92
2022-11-14T11:05:58.011Z,20.42
2022-11-14T11:09:02.296Z,22.75
2022-11-14T11:11:57.956Z,20.05
2022-11-14T11:14:24.734Z,18.38
2022-11-14T11:17:13.085Z,16.98
2022-11-14T11:19:39.822Z,22.60
2022-11-14T11:22:26.714Z,15.13
2022-11-14T11:27:22.579Z,16.85
2022-11-14T11:32:33.727Z,18.08
2022-11-14T11:35:19.095Z,19.38
2022-11-14T11:38:05.365Z,14.48
2022-11-14T11:45:23.378Z,15.63
2022-11-14T11:48:21.845Z,19.88
2022-11-14T11:51:12.375Z,17.05
2022-11-14T11:56:27.729Z,15.40
2022-11-14T11:59:28.155Z,33.65
2022-11-14T12:02:26.473Z,22.92
2022-11-14T12:04:54.762Z,20.75
2022-11-14T12:07:40.435Z,19.92
2022-11-14T12:10:20.016Z,19.50
2022-11-14T12:13:13.843Z,15.35
2022-11-14T12:18:27.787Z,15.43
2022-11-14T12:21:19.793Z,18.17
2022-11-14T12:24:08.073Z,13.45
2022-11-14T12:26:40.892Z,11.45
2022-11-14T12:29:26.145Z,14.77
2022-11-14T12:32:13.650Z,16.00
2022-11-14T12:34:59.641Z,12.85
2022-11-14T12:37:33.111Z,10.93
2022-11-14T12:40:25.383Z,11.30
2022-11-14T12:43:43.735Z,13.25
2022-11-14T12:46:49.295Z,10.30
2022-11-14T12:54:44.928Z,13.55
2022-11-14T12:57:49.394Z,13.43
2022-11-14T13:00:17.069Z,13.95
2022-11-14T13:03:02.486Z,10.18
2022-11-14T13:08:13.108Z,12.25
2022-11-14T13:10:58.828Z,14.85
2022-11-14T13:16:40.475Z,13.88
2022-11-14T13:25:00.517Z,11.32
2022-11-14T13:28:06.602Z,11.20
2022-11-14T13:30:51.959Z,10.05
2022-11-14T13:33:40.720Z,8.73
2022-11-14T13:41:47.941Z,8.05
2022-11-14T13:50:04.063Z,7.05
2022-11-14T13:52:49.599Z,8.38
2022-11-14T13:55:34.802Z,10.35
2022-11-14T13:58:31.766Z,9.52
2022-11-14T14:01:17.230Z,7.22
2022-11-14T14:04:05.431Z,11.20
2022-11-14T14:06:45.155Z,9.18
2022-11-14T14:09:37.081Z,8.93
2022-11-14T14:12:25.739Z,11.27
2022-11-14T14:15:29.389Z,11.48
2022-11-14T14:18:33.449Z,13.70
2022-11-14T14:26:37.953Z,12.80
2022-11-14T14:29:25.481Z,10.60
2022-11-14T14:32:12.406Z,13.98
2022-11-14T14:39:57.106Z,10.35
2022-11-14T14:42:46.079Z,9.77
2022-11-14T14:45:17.082Z,9.13
2022-11-14T14:48:04.406Z,4.15
2022-11-14T14:50:41.627Z,2.97
2022-11-14T14:53:28.048Z,2.38
2022-11-14T15:03:22.949Z,1.52
2022-11-14T15:11:14.196Z,4.10
2022-11-14T15:14:24.162Z,7.47
2022-11-14T15:17:09.791Z,3.67
2022-11-14T15:19:55.087Z,3.38
2022-11-14T15:25:12.097Z,1.30
2022-11-14T15:28:00.866Z,2.47
2022-11-14T15:31:02.288Z,2.92
2022-11-14T15:33:30.202Z,2.05
2022-11-14T15:36:19.294Z,2.78
2022-11-14T15:41:29.881Z,1.55
2022-11-14T15:47:23.739Z,6.28
2022-11-14T16:02:33.554Z,4.13
2022-11-14T16:05:21.332Z,2.83
2022-11-14T16:10:14.899Z,4.85
2022-11-14T16:15:25.401Z,8.20
2022-11-14T16:21:32.443Z,6.35
2022-11-14T16:24:21.947Z,8.18
2022-11-14T16:26:48.999Z,13.57
2022-11-14T16:29:34.596Z,11.93
2022-11-14T16:32:20.218Z,11.02
2022-11-14T16:35:08.244Z,17.17
2022-11-14T16:37:38.793Z,10.75
2022-11-14T16:40:27.958Z,11.63
2022-11-14T16:45:21.280Z,8.45
2022-11-14T16:48:08.319Z,7.40
2022-11-14T16:50:56.786Z,10.55
2022-11-14T16:53:23.730Z,44.65
2022-11-14T16:56:11.618Z,22.33
2022-11-14T16:58:41.180Z,17.65
2022-11-14T17:01:27.429Z,11.65
2022-11-14T17:09:06.692Z,9.60
2022-11-14T17:11:51.920Z,20.85
2022-11-14T17:14:36.923Z,45.85
2022-11-14T17:19:30.498Z,35.35
2022-11-14T17:22:16.863Z,55.47
2022-11-14T17:24:43.587Z,61.85
2022-11-14T17:27:28.806Z,86.00
2022-11-14T17:32:20.805Z,18.45
2022-11-14T17:39:56.978Z,37.13
2022-11-14T17:42:42.383Z,36.75
2022-11-14T17:45:27.300Z,35.92
2022-11-14T17:48:13.302Z,34.50
2022-11-14T17:51:05.607Z,18.23
2022-11-14T17:55:58.286Z,22.10
2022-11-14T18:01:12.230Z,28.00
2022-11-14T18:04:01.646Z,33.15
2022-11-14T18:09:15.405Z,23.40
2022-11-14T18:19:20.596Z,23.13
2022-11-14T18:22:06.056Z,22.90
2022-11-14T18:27:35.845Z,16.00
2022-11-14T18:30:40.438Z,18.17
2022-11-14T18:33:07.763Z,8.73
2022-11-14T18:35:56.848Z,15.68
2022-11-14T18:40:52.943Z,13.25
2022-11-14T18:46:11.395Z,12.10
2022-11-14T18:48:57.408Z,13.23
2022-11-14T18:51:42.713Z,22.20
2022-11-14T18:56:53.570Z,14.32
2022-11-14T18:59:38.703Z,18.45
2022-11-14T19:06:56.540Z,19.67
2022-11-14T19:09:23.832Z,18.42
2022-11-14T19:12:24.041Z,24.02
2022-11-14T19:17:36.662Z,18.52
2022-11-14T19:20:23.207Z,25.58
2022-11-14T19:23:08.312Z,20.48
2022-11-14T19:32:51.550Z,26.63
2022-11-14T19:35:39.728Z,18.33
2022-11-14T19:38:06.331Z,15.35
2022-11-14T19:40:51.528Z,25.77
2022-11-14T19:43:18.827Z,13.85
2022-11-14T19:46:04.617Z,21.55
2022-11-14T19:48:33.283Z,20.05
2022-11-14T19:51:18.520Z,20.48
2022-11-14T19:58:56.830Z,16.15
2022-11-14T20:04:12.617Z,16.73
2022-11-14T20:06:58.124Z,16.52
2022-11-14T20:09:25.010Z,17.02
2022-11-14T20:12:10.685Z,14.05
2022-11-14T20:19:47.022Z,18.92
2022-11-14T20:22:33.026Z,18.30
2022-11-14T20:25:18.238Z,17.35
2022-11-14T20:27:45.120Z,15.45
2022-11-14T20:30:30.775Z,32.95
2022-11-14T20:38:07.968Z,20.70
2022-11-14T20:40:56.396Z,19.30
2022-11-14T20:43:41.926Z,18.35
2022-11-14T20:46:13.298Z,17.92
2022-11-14T20:48:58.398Z,24.48
2022-11-14T20:54:10.571Z,23.83
2022-11-14T20:59:21.386Z,24.25
2022-11-14T21:02:06.999Z,19.90
2022-11-14T21:04:52.490Z,12.85
2022-11-14T21:07:19.173Z,17.05
2022-11-14T21:10:23.430Z,13.20
2022-11-14T21:13:12.358Z,17.85
2022-11-14T21:18:24.459Z,18.10
2022-11-14T21:21:11.250Z,18.17
2022-11-14T21:23:56.838Z,15.55
2022-11-14T21:28:53.579Z,22.50
2022-11-14T21:31:40.915Z,14.00
2022-11-14T21:36:52.214Z,24.95
2022-11-14T21:46:53.603Z,12.60
2022-11-14T21:52:04.300Z,10.18
2022-11-14T21:57:14.989Z,12.77
2022-11-14T22:00:00.295Z,13.57
2022-11-14T22:02:45.612Z,11.95
2022-11-14T22:05:12.216Z,19.10
2022-11-14T22:12:48.268Z,10.40
2022-11-14T22:15:35.142Z,14.63
2022-11-14T22:18:20.323Z,14.35
2022-11-14T22:28:23.228Z,15.90
2022-11-14T22:31:26.399Z,8.73
2022-11-14T22:34:11.706Z,15.38
2022-11-14T22:36:38.297Z,11.18
2022-11-14T22:39:23.383Z,13.88
2022-11-14T22:41:50.054Z,9.82
2022-11-14T22:44:35.234Z,13.30
2022-11-14T22:47:01.860Z,13.57
2022-11-14T22:49:47.180Z,11.00
2022-11-14T22:52:13.772Z,6.40
2022-11-14T22:54:59.046Z,9.98
2022-11-14T22:59:51.642Z,6.97
2022-11-14T23:05:02.424Z,8.90
2022-11-14T23:10:12.977Z,7.18
2022-11-14T23:12:57.901Z,15.73
2022-11-14T23:15:46.548Z,5.93
2022-11-14T23:18:31.908Z,10.75
2022-11-14T23:21:03.599Z,10.93
2022-11-14T23:24:15.613Z,10.13
2022-11-14T23:31:33.130Z,7.20
2022-11-14T23:36:43.760Z,15.57
2022-11-14T23:39:28.830Z,17.27
2022-11-14T23:42:13.954Z,9.40
2022-11-14T23:44:40.538Z,11.00
2022-11-14T23:47:25.566Z,13.10
2022-11-14T23:49:52.144Z,10.35
2022-11-14T23:52:36.963Z,8.10
2022-11-14T23:55:22.115Z,10.13
2022-11-14T23:58:07.014Z,13.95
